createdAt,value
2018-11-05T00:01:12.611Z,17.37
2018-11-05T00:03:40.707Z,17.93
2018-11-05T00:06:08.813Z,18.53
2018-11-05T00:08:36.911Z,18.13
2018-11-05T00:11:05.662Z,18.20
2018-11-05T00:13:33.777Z,19.60
2018-11-05T00:16:01.858Z,19.23
2018-11-05T00:18:29.967Z,17.50
2018-11-05T00:20:58.074Z,17.53
2018-11-05T00:23:26.167Z,17.87
2018-11-05T00:25:54.271Z,17.80
2018-11-05T00:28:22.359Z,17.97
2018-11-05T00:30:50.491Z,17.43
2018-11-05T00:33:18.604Z,19.43
2018-11-05T00:35:46.706Z,19.20
2018-11-05T00:38:14.854Z,19.50
2018-11-05T00:40:42.943Z,18.87
2018-11-05T00:43:11.031Z,19.40
2018-11-05T00:45:39.208Z,20.37
2018-11-05T00:48:07.257Z,19.47
2018-11-05T00:50:35.366Z,20.83
2018-11-05T00:53:03.472Z,19.53
2018-11-05T00:55:31.666Z,20.20
2018-11-05T00:57:59.782Z,18.07
2018-11-05T01:00:27.898Z,19.33
2018-11-05T01:02:56.034Z,18.03
2018-11-05T01:05:24.134Z,18.53
2018-11-05T01:07:52.251Z,19.00
2018-11-05T01:10:20.333Z,18.47
2018-11-05T01:12:48.449Z,17.50
2018-11-05T01:15:17.472Z,19.30
2018-11-05T01:17:45.846Z,17.30
2018-11-05T01:20:15.070Z,16.97
2018-11-05T01:22:43.257Z,17.73
2018-11-05T01:25:11.602Z,18.57
2018-11-05T01:27:39.719Z,18.60
2018-11-05T01:30:10.058Z,17.93
2018-11-05T01:32:38.166Z,17.80
2018-11-05T01:35:07.275Z,17.93
2018-11-05T01:37:35.395Z,17.50
2018-11-05T01:40:03.616Z,18.20
2018-11-05T01:42:31.717Z,17.47
2018-11-05T01:44:59.838Z,18.30
2018-11-05T01:47:27.974Z,17.57
2018-11-05T01:49:56.105Z,15.60
2018-11-05T01:52:24.214Z,15.20
2018-11-05T01:54:52.327Z,18.03
2018-11-05T01:57:20.463Z,17.10
2018-11-05T01:59:48.570Z,18.53
2018-11-05T02:02:16.711Z,17.43
2018-11-05T02:04:44.837Z,17.37
2018-11-05T02:07:12.982Z,18.47
2018-11-05T02:09:41.102Z,16.17
2018-11-05T02:12:09.210Z,15.87
2018-11-05T02:14:37.350Z,16.50
2018-11-05T02:17:05.551Z,16.77
2018-11-05T02:19:33.653Z,16.97
2018-11-05T02:22:01.775Z,16.70
2018-11-05T02:24:29.942Z,17.67
2018-11-05T02:26:58.092Z,16.93
2018-11-05T02:29:26.142Z,17.47
2018-11-05T02:31:54.270Z,17.47
2018-11-05T02:34:22.493Z,17.93
2018-11-05T02:36:50.603Z,16.37
2018-11-05T02:39:18.730Z,18.33
2018-11-05T02:41:46.858Z,17.53
2018-11-05T02:44:14.943Z,17.97
2018-11-05T02:46:43.043Z,16.50
2018-11-05T02:49:11.127Z,17.80
2018-11-05T02:51:39.210Z,17.13
2018-11-05T02:54:07.327Z,17.77
2018-11-05T02:56:35.443Z,17.73
2018-11-05T02:59:03.588Z,18.10
2018-11-05T03:01:31.683Z,18.70
2018-11-05T03:03:59.830Z,18.23
2018-11-05T03:06:27.919Z,17.27
2018-11-05T03:08:56.002Z,18.67
2018-11-05T03:11:24.111Z,18.17
2018-11-05T03:13:52.237Z,18.73
2018-11-05T03:16:20.342Z,16.63
2018-11-05T03:18:48.450Z,18.03
2018-11-05T03:21:16.553Z,17.53
2018-11-05T03:23:44.654Z,18.57
2018-11-05T03:26:12.799Z,18.30
2018-11-05T03:28:40.959Z,18.93
2018-11-05T03:31:09.098Z,18.10
2018-11-05T03:33:37.274Z,18.20
2018-11-05T03:36:06.279Z,18.90
2018-11-05T03:38:34.410Z,18.03
2018-11-05T03:41:02.532Z,18.20
2018-11-05T03:43:30.658Z,18.63
2018-11-05T03:45:58.784Z,17.07
2018-11-05T03:48:26.922Z,18.73
2018-11-05T03:50:55.051Z,17.63
2018-11-05T03:53:23.194Z,16.73
2018-11-05T03:55:51.370Z,19.10
2018-11-05T03:58:19.438Z,19.07
2018-11-05T04:00:47.554Z,16.83
2018-11-05T04:03:15.760Z,18.23
2018-11-05T04:05:43.918Z,18.80
2018-11-05T04:08:12.079Z,17.63
2018-11-05T04:10:40.206Z,18.47
2018-11-05T04:13:08.395Z,16.97
2018-11-05T04:15:36.648Z,18.90
2018-11-05T04:18:04.678Z,18.70
2018-11-05T04:20:32.861Z,18.40
2018-11-05T04:23:01.025Z,17.07
2018-11-05T04:25:29.203Z,20.00
2018-11-05T04:27:57.494Z,18.40
2018-11-05T04:30:25.547Z,16.87
2018-11-05T04:32:53.686Z,19.50
2018-11-05T04:35:21.906Z,18.57
2018-11-05T04:37:50.074Z,19.40
2018-11-05T04:40:18.226Z,18.23
2018-11-05T04:42:46.399Z,18.47
2018-11-05T04:45:14.543Z,17.40
2018-11-05T04:47:43.352Z,18.53
2018-11-05T04:50:12.566Z,18.63
2018-11-05T04:52:41.434Z,17.83
2018-11-05T04:55:09.575Z,15.80
2018-11-05T04:57:37.835Z,20.67
2018-11-05T05:00:12.303Z,27.27
2018-11-05T05:02:41.420Z,20.97
2018-11-05T05:05:10.323Z,20.90
2018-11-05T05:07:38.490Z,18.03
2018-11-05T05:10:07.248Z,19.77
2018-11-05T05:12:35.403Z,23.90
2018-11-05T05:15:03.562Z,22.83
2018-11-05T05:17:31.727Z,18.07
2018-11-05T05:19:59.878Z,19.70
2018-11-05T05:22:28.074Z,19.23
2018-11-05T05:24:56.275Z,21.20
2018-11-05T05:27:24.426Z,25.53
2018-11-05T05:29:53.387Z,21.00
2018-11-05T05:32:21.539Z,23.97
2018-11-05T05:34:49.691Z,24.17
2018-11-05T05:37:17.831Z,19.07
2018-11-05T05:39:45.998Z,24.83
2018-11-05T05:42:14.165Z,22.47
2018-11-05T05:44:42.330Z,23.47
2018-11-05T05:47:10.486Z,19.10
2018-11-05T05:49:38.664Z,19.40
2018-11-05T05:52:06.825Z,19.17
2018-11-05T05:54:34.942Z,31.63
2018-11-05T05:57:03.087Z,22.17
2018-11-05T05:59:31.251Z,27.27
2018-11-05T06:01:59.386Z,24.93
2018-11-05T06:04:27.701Z,22.10
2018-11-05T06:06:55.846Z,26.07
2018-11-05T06:09:23.970Z,23.13
2018-11-05T06:11:52.094Z,21.57
2018-11-05T06:14:20.230Z,31.13
2018-11-05T06:16:48.372Z,20.53
2018-11-05T06:19:16.486Z,19.93
2018-11-05T06:21:44.666Z,19.90
2018-11-05T06:24:12.742Z,20.47
2018-11-05T06:26:40.871Z,21.00
2018-11-05T06:29:08.983Z,22.10
2018-11-05T06:31:37.143Z,24.30
2018-11-05T06:34:05.294Z,27.07
2018-11-05T06:36:33.435Z,18.33
2018-11-05T06:39:01.550Z,19.33
2018-11-05T06:41:29.798Z,18.80
2018-11-05T06:43:57.841Z,18.80
2018-11-05T06:46:25.939Z,18.47
2018-11-05T06:48:54.111Z,18.93
2018-11-05T06:51:22.234Z,18.63
2018-11-05T06:53:50.375Z,19.33
2018-11-05T06:56:18.482Z,20.23
2018-11-05T06:58:46.602Z,19.73
2018-11-05T07:01:14.759Z,19.03
2018-11-05T07:03:42.880Z,20.13
2018-11-05T07:06:10.987Z,21.07
2018-11-05T07:08:39.374Z,19.80
2018-11-05T07:11:07.549Z,19.20
2018-11-05T07:13:35.666Z,17.77
2018-11-05T07:16:03.922Z,19.33
2018-11-05T07:18:32.129Z,19.13
2018-11-05T07:21:00.166Z,19.03
2018-11-05T07:23:28.297Z,19.23
2018-11-05T07:25:56.411Z,20.70
2018-11-05T07:28:24.522Z,22.13
2018-11-05T07:30:52.663Z,19.20
2018-11-05T07:33:20.955Z,19.43
2018-11-05T07:35:48.925Z,20.60
2018-11-05T07:38:17.054Z,22.30
2018-11-05T07:40:45.175Z,19.93
2018-11-05T07:43:13.327Z,18.97
2018-11-05T07:45:41.447Z,20.53
2018-11-05T07:48:09.586Z,20.33
2018-11-05T07:50:37.758Z,21.73
2018-11-05T07:53:06.391Z,20.23
2018-11-05T07:55:34.538Z,21.90
2018-11-05T07:58:02.695Z,22.73
2018-11-05T08:00:36.278Z,18.87
2018-11-05T08:03:04.431Z,19.10
2018-11-05T08:05:32.583Z,21.17
2018-11-05T08:08:01.135Z,20.10
2018-11-05T08:10:32.908Z,20.93
2018-11-05T08:13:01.075Z,20.67
2018-11-05T08:15:29.223Z,18.83
2018-11-05T08:17:57.379Z,20.03
2018-11-05T08:20:25.546Z,19.87
2018-11-05T08:22:53.690Z,18.77
2018-11-05T08:25:21.863Z,19.33
2018-11-05T08:27:50.026Z,19.90
2018-11-05T08:30:23.462Z,18.63
2018-11-05T08:32:51.678Z,18.60
2018-11-05T08:35:19.866Z,19.90
2018-11-05T08:37:48.555Z,17.87
2018-11-05T08:40:18.988Z,17.87
2018-11-05T08:42:48.042Z,18.03
2018-11-05T08:45:17.489Z,18.27
2018-11-05T08:47:45.645Z,19.10
2018-11-05T08:50:15.073Z,18.90
2018-11-05T08:52:43.172Z,18.73
2018-11-05T08:55:13.451Z,19.60
2018-11-05T08:57:42.382Z,18.07
2018-11-05T09:00:16.398Z,18.27
2018-11-05T09:02:45.554Z,16.83
2018-11-05T09:05:14.083Z,17.87
2018-11-05T09:07:42.434Z,15.93
2018-11-05T09:10:10.722Z,18.03
2018-11-05T09:12:38.722Z,17.27
2018-11-05T09:15:08.433Z,16.47
2018-11-05T09:17:36.587Z,18.57
2018-11-05T09:20:05.799Z,17.87
2018-11-05T09:22:33.942Z,18.00
2018-11-05T09:25:02.058Z,19.30
2018-11-05T09:27:30.226Z,17.90
2018-11-05T09:29:58.433Z,18.63
2018-11-05T09:32:26.594Z,18.03
2018-11-05T09:34:54.755Z,17.27
2018-11-05T09:37:22.959Z,19.00
2018-11-05T09:39:51.114Z,19.20
2018-11-05T09:42:19.251Z,18.90
2018-11-05T09:44:47.403Z,17.93
2018-11-05T09:47:15.550Z,18.47
2018-11-05T09:49:43.784Z,17.77
2018-11-05T09:52:11.854Z,17.47
2018-11-05T09:54:39.970Z,19.20
2018-11-05T09:57:08.108Z,19.27
2018-11-05T09:59:36.218Z,17.47
2018-11-05T10:02:04.471Z,17.90
2018-11-05T10:04:32.838Z,17.97
2018-11-05T10:07:00.731Z,16.83
2018-11-05T10:09:28.861Z,16.70
2018-11-05T10:11:56.998Z,16.80
2018-11-05T10:14:25.130Z,16.57
2018-11-05T10:16:53.259Z,17.77
2018-11-05T10:19:21.423Z,17.30
2018-11-05T10:21:49.537Z,17.57
2018-11-05T10:24:17.675Z,17.83
2018-11-05T10:26:45.815Z,17.23
2018-11-05T10:29:14.694Z,17.37
2018-11-05T10:31:42.842Z,15.57
2018-11-05T10:34:10.975Z,17.43
2018-11-05T10:36:39.107Z,17.70
2018-11-05T10:39:08.457Z,16.60
2018-11-05T10:41:36.575Z,16.30
2018-11-05T10:44:05.148Z,17.05
2018-11-05T10:46:33.236Z,16.15
2018-11-05T10:49:02.039Z,16.02
2018-11-05T10:51:30.665Z,17.40
2018-11-05T10:53:58.782Z,16.90
2018-11-05T10:56:26.942Z,15.85
2018-11-05T10:58:55.075Z,15.80
2018-11-05T11:01:28.604Z,15.50
2018-11-05T11:04:02.306Z,16.67
2018-11-05T11:06:30.417Z,16.63
2018-11-05T11:08:58.526Z,16.17
2018-11-05T11:11:26.657Z,15.77
2018-11-05T11:13:54.809Z,15.83
2018-11-05T11:16:22.951Z,16.47
2018-11-05T11:18:51.074Z,16.03
2018-11-05T11:21:19.233Z,15.37
2018-11-05T11:23:47.370Z,15.80
2018-11-05T11:26:15.521Z,16.05
2018-11-05T11:28:43.733Z,14.68
2018-11-05T11:31:11.831Z,16.27
2018-11-05T11:33:40.067Z,15.58
2018-11-05T11:36:08.227Z,15.73
2018-11-05T11:38:36.375Z,16.05
2018-11-05T11:41:04.551Z,15.20
2018-11-05T11:43:32.727Z,17.47
2018-11-05T11:46:00.949Z,15.73
2018-11-05T11:48:29.086Z,14.83
2018-11-05T11:50:57.254Z,16.02
2018-11-05T11:53:25.479Z,17.20
2018-11-05T11:55:53.586Z,15.35
2018-11-05T11:58:21.727Z,17.23
2018-11-05T12:00:49.890Z,15.83
2018-11-05T12:03:18.049Z,15.17
2018-11-05T12:05:46.175Z,15.50
2018-11-05T12:08:14.310Z,14.90
2018-11-05T12:10:42.466Z,14.35
2018-11-05T12:13:10.598Z,15.35
2018-11-05T12:15:38.778Z,16.40
2018-11-05T12:18:06.910Z,15.72
2018-11-05T12:20:35.075Z,15.13
2018-11-05T12:23:03.223Z,15.68
2018-11-05T12:25:31.342Z,14.38
2018-11-05T12:27:59.542Z,15.43
2018-11-05T12:30:27.691Z,15.75
2018-11-05T12:32:55.868Z,16.23
2018-11-05T12:35:24.010Z,16.12
2018-11-05T12:37:52.977Z,16.10
2018-11-05T12:40:22.006Z,14.60
2018-11-05T12:42:50.823Z,16.42
2018-11-05T12:45:19.011Z,15.98
2018-11-05T12:47:47.266Z,16.62
2018-11-05T12:50:17.766Z,15.48
2018-11-05T12:52:46.786Z,16.10
2018-11-05T12:55:14.944Z,15.53
2018-11-05T12:57:43.090Z,16.12
2018-11-05T13:00:14.584Z,16.52
2018-11-05T13:02:42.839Z,16.45
2018-11-05T13:05:12.163Z,16.30
2018-11-05T13:07:40.369Z,16.95
2018-11-05T13:10:10.322Z,17.30
2018-11-05T13:12:38.581Z,17.00
2018-11-05T13:15:07.564Z,15.98
2018-11-05T13:17:35.876Z,15.95
2018-11-05T13:20:04.359Z,17.25
2018-11-05T13:22:32.505Z,17.85
2018-11-05T13:25:00.640Z,16.95
2018-11-05T13:27:28.898Z,16.97
2018-11-05T13:29:57.101Z,16.55
2018-11-05T13:32:25.257Z,16.37
2018-11-05T13:34:53.374Z,15.78
2018-11-05T13:37:21.718Z,16.87
2018-11-05T13:39:49.694Z,15.93
2018-11-05T13:42:17.870Z,16.48
2018-11-05T13:44:46.260Z,17.37
2018-11-05T13:47:14.903Z,16.07
2018-11-05T13:49:42.643Z,17.07
2018-11-05T13:52:10.849Z,16.97
2018-11-05T13:54:39.087Z,17.35
2018-11-05T13:57:07.122Z,17.12
2018-11-05T13:59:35.299Z,17.73
2018-11-05T14:02:03.467Z,18.85
2018-11-05T14:04:31.636Z,17.80
2018-11-05T14:06:59.798Z,16.87
2018-11-05T14:09:27.970Z,16.23
2018-11-05T14:11:56.126Z,16.77
2018-11-05T14:14:24.306Z,17.35
2018-11-05T14:16:52.458Z,18.52
2018-11-05T14:19:20.638Z,17.05
2018-11-05T14:21:48.898Z,16.30
2018-11-05T14:24:17.045Z,16.37
2018-11-05T14:26:45.227Z,18.62
2018-11-05T14:29:13.797Z,18.20
2018-11-05T14:31:41.585Z,17.27
2018-11-05T14:34:09.774Z,17.45
2018-11-05T14:36:38.157Z,18.37
2018-11-05T14:39:09.258Z,18.00
2018-11-05T14:41:37.491Z,17.27
2018-11-05T14:44:05.650Z,18.33
2018-11-05T14:46:33.834Z,19.63
2018-11-05T14:49:02.011Z,17.75
2018-11-05T14:51:30.190Z,18.07
2018-11-05T14:53:58.354Z,18.48
2018-11-05T14:56:26.478Z,17.87
2018-11-05T14:58:54.617Z,17.50
2018-11-05T15:01:22.761Z,18.30
2018-11-05T15:03:51.219Z,16.87
2018-11-05T15:06:19.411Z,17.40
2018-11-05T15:08:47.538Z,18.90
2018-11-05T15:11:15.666Z,18.57
2018-11-05T15:13:44.366Z,19.80
2018-11-05T15:16:12.507Z,18.73
2018-11-05T15:18:40.766Z,18.82
2018-11-05T15:21:08.835Z,19.67
2018-11-05T15:23:36.896Z,18.73
2018-11-05T15:26:05.093Z,20.40
2018-11-05T15:28:33.146Z,17.87
2018-11-05T15:31:01.288Z,17.97
2018-11-05T15:33:29.431Z,18.97
2018-11-05T15:35:57.519Z,19.35
2018-11-05T15:38:25.702Z,17.98
2018-11-05T15:40:53.818Z,18.17
2018-11-05T15:43:21.963Z,18.87
2018-11-05T15:45:50.097Z,18.30
2018-11-05T15:48:18.253Z,17.02
2018-11-05T15:50:46.406Z,16.90
2018-11-05T15:53:14.825Z,18.60
2018-11-05T15:55:42.708Z,18.20
2018-11-05T15:58:10.839Z,18.33
2018-11-05T16:00:38.954Z,19.50
2018-11-05T16:03:07.095Z,18.43
2018-11-05T16:05:35.239Z,19.47
2018-11-05T16:08:03.390Z,20.70
2018-11-05T16:10:31.526Z,18.73
2018-11-05T16:12:59.650Z,18.43
2018-11-05T16:15:27.823Z,16.43
2018-11-05T16:17:55.995Z,17.60
2018-11-05T16:20:24.162Z,15.83
2018-11-05T16:22:52.782Z,17.63
2018-11-05T16:25:20.910Z,17.57
2018-11-05T16:27:49.047Z,17.17
2018-11-05T16:30:19.467Z,17.93
2018-11-05T16:32:48.198Z,15.50
2018-11-05T16:35:16.387Z,16.20
2018-11-05T16:37:44.534Z,15.93
2018-11-05T16:40:14.112Z,15.70
2018-11-05T16:42:42.856Z,15.57
2018-11-05T16:45:11.387Z,15.33
2018-11-05T16:47:40.137Z,14.60
2018-11-05T16:50:13.485Z,14.63
2018-11-05T16:52:41.642Z,15.63
2018-11-05T16:55:11.308Z,13.97
2018-11-05T16:57:39.567Z,16.20
2018-11-05T17:00:07.929Z,14.70
2018-11-05T17:02:36.296Z,15.67
2018-11-05T17:05:04.290Z,15.80
2018-11-05T17:07:32.423Z,14.37
2018-11-05T17:10:00.559Z,14.33
2018-11-05T17:12:28.683Z,15.60
2018-11-05T17:14:56.819Z,16.97
2018-11-05T17:17:24.957Z,16.03
2018-11-05T17:19:53.074Z,16.97
2018-11-05T17:22:21.215Z,17.43
2018-11-05T17:24:49.373Z,15.03
2018-11-05T17:27:17.490Z,15.73
2018-11-05T17:29:45.608Z,15.83
2018-11-05T17:32:13.746Z,17.13
2018-11-05T17:34:41.883Z,24.57
2018-11-05T17:37:09.997Z,17.37
2018-11-05T17:39:38.126Z,16.83
2018-11-05T17:42:06.260Z,17.97
2018-11-05T17:44:34.376Z,17.90
2018-11-05T17:47:02.543Z,20.13
2018-11-05T17:49:30.679Z,22.63
2018-11-05T17:51:58.830Z,21.47
2018-11-05T17:54:27.018Z,20.30
2018-11-05T17:56:55.226Z,21.20
2018-11-05T17:59:23.294Z,20.87
2018-11-05T18:01:51.450Z,21.20
2018-11-05T18:04:19.657Z,19.80
2018-11-05T18:06:47.758Z,22.40
2018-11-05T18:09:15.929Z,22.97
2018-11-05T18:11:44.050Z,24.97
2018-11-05T18:14:12.215Z,24.20
2018-11-05T18:16:40.359Z,24.30
2018-11-05T18:19:08.572Z,21.97
2018-11-05T18:21:36.647Z,21.20
2018-11-05T18:24:05.245Z,20.90
2018-11-05T18:26:33.391Z,19.60
2018-11-05T18:29:01.520Z,21.77
2018-11-05T18:31:29.677Z,21.23
2018-11-05T18:33:57.816Z,19.73
2018-11-05T18:36:25.975Z,20.37
2018-11-05T18:38:54.114Z,18.33
2018-11-05T18:41:22.262Z,19.27
2018-11-05T18:43:50.407Z,21.30
2018-11-05T18:46:18.558Z,19.27
2018-11-05T18:48:46.723Z,21.37
2018-11-05T18:51:14.855Z,20.20
2018-11-05T18:53:42.990Z,21.00
2018-11-05T18:56:11.149Z,20.33
2018-11-05T18:58:39.321Z,19.37
2018-11-05T19:01:07.467Z,18.80
2018-11-05T19:03:35.650Z,20.67
2018-11-05T19:06:03.750Z,18.83
2018-11-05T19:08:31.902Z,19.90
2018-11-05T19:11:00.051Z,21.03
2018-11-05T19:13:28.224Z,19.30
2018-11-05T19:15:56.418Z,20.13
2018-11-05T19:18:24.504Z,19.27
2018-11-05T19:20:52.685Z,20.13
2018-11-05T19:23:20.943Z,19.60
2018-11-05T19:25:48.990Z,19.70
2018-11-05T19:28:17.176Z,18.30
2018-11-05T19:30:45.314Z,19.73
2018-11-05T19:33:13.471Z,18.40
2018-11-05T19:35:41.601Z,18.57
2018-11-05T19:38:09.726Z,18.13
2018-11-05T19:40:37.922Z,19.03
2018-11-05T19:43:06.490Z,18.47
2018-11-05T19:45:34.528Z,19.13
2018-11-05T19:48:02.687Z,18.40
2018-11-05T19:50:30.849Z,19.43
2018-11-05T19:52:59.004Z,19.63
2018-11-05T19:55:27.154Z,19.20
2018-11-05T19:57:55.288Z,18.97
2018-11-05T20:00:24.860Z,18.73
2018-11-05T20:02:53.290Z,17.43
2018-11-05T20:05:21.413Z,17.07
2018-11-05T20:07:50.267Z,19.17
2018-11-05T20:10:18.391Z,17.13
2018-11-05T20:12:46.907Z,18.10
2018-11-05T20:15:15.244Z,17.53
2018-11-05T20:17:44.074Z,18.00
2018-11-05T20:20:13.595Z,16.83
2018-11-05T20:22:41.806Z,18.30
2018-11-05T20:25:10.122Z,16.07
2018-11-05T20:27:38.839Z,16.67
2018-11-05T20:30:09.794Z,16.77
2018-11-05T20:32:38.461Z,18.60
2018-11-05T20:35:06.887Z,18.00
2018-11-05T20:37:35.011Z,15.27
2018-11-05T20:40:03.306Z,16.63
2018-11-05T20:42:31.254Z,14.83
2018-11-05T20:44:59.381Z,15.53
2018-11-05T20:47:27.490Z,17.23
2018-11-05T20:49:55.619Z,19.80
2018-11-05T20:52:23.728Z,16.53
2018-11-05T20:54:51.854Z,17.57
2018-11-05T20:57:19.964Z,17.87
2018-11-05T20:59:48.109Z,18.30
2018-11-05T21:02:16.217Z,17.00
2018-11-05T21:04:44.318Z,15.80
2018-11-05T21:07:12.839Z,16.07
2018-11-05T21:09:41.019Z,15.47
2018-11-05T21:12:09.151Z,17.67
2018-11-05T21:14:37.881Z,17.23
2018-11-05T21:17:05.933Z,14.83
2018-11-05T21:19:34.151Z,18.57
2018-11-05T21:22:02.328Z,19.00
2018-11-05T21:24:30.371Z,16.40
2018-11-05T21:26:58.581Z,16.90
2018-11-05T21:29:27.315Z,13.73
2018-11-05T21:31:55.483Z,17.10
2018-11-05T21:34:23.619Z,16.10
2018-11-05T21:36:51.774Z,15.43
2018-11-05T21:39:19.962Z,17.03
2018-11-05T21:41:48.163Z,17.13
2018-11-05T21:44:16.320Z,16.27
2018-11-05T21:46:44.443Z,15.13
2018-11-05T21:49:12.839Z,16.43
2018-11-05T21:51:41.004Z,16.33
2018-11-05T21:54:09.152Z,15.90
2018-11-05T21:56:37.255Z,17.77
2018-11-05T21:59:05.556Z,16.40
2018-11-05T22:01:33.692Z,17.70
2018-11-05T22:04:01.798Z,16.53
2018-11-05T22:06:29.926Z,18.57
2018-11-05T22:08:58.091Z,16.70
2018-11-05T22:11:26.221Z,15.20
2018-11-05T22:13:54.357Z,18.77
2018-11-05T22:19:10.851Z,17.13
2018-11-05T22:21:38.957Z,16.30
2018-11-05T22:24:07.117Z,19.50
2018-11-05T22:26:35.231Z,17.60
2018-11-05T22:29:03.385Z,17.80
2018-11-05T22:31:31.513Z,17.33
2018-11-05T22:33:59.630Z,16.37
2018-11-05T22:36:27.774Z,17.37
2018-11-05T22:38:56.002Z,15.97
2018-11-05T22:41:24.138Z,16.53
2018-11-05T22:43:52.302Z,17.87
2018-11-05T22:46:20.429Z,19.30
2018-11-05T22:48:48.559Z,16.33
2018-11-05T22:51:16.774Z,17.00
2018-11-05T22:53:44.845Z,17.07
2018-11-05T22:56:13.002Z,14.60
2018-11-05T22:58:41.152Z,16.00
2018-11-05T23:01:13.542Z,19.17
2018-11-05T23:03:41.722Z,17.60
2018-11-05T23:06:09.902Z,18.27
2018-11-05T23:08:38.050Z,16.63
2018-11-05T23:11:06.190Z,17.00
2018-11-05T23:13:34.338Z,16.37
2018-11-05T23:16:02.522Z,18.33
2018-11-05T23:18:30.618Z,18.10
2018-11-05T23:20:58.751Z,17.83
2018-11-05T23:23:26.905Z,18.83
2018-11-05T23:25:55.043Z,18.23
2018-11-05T23:28:23.215Z,16.93
2018-11-05T23:30:51.350Z,16.33
2018-11-05T23:33:19.513Z,16.30
2018-11-05T23:35:47.650Z,19.07
2018-11-05T23:38:15.773Z,22.77
2018-11-05T23:40:43.884Z,21.33
2018-11-05T23:43:12.004Z,18.63
2018-11-05T23:45:40.142Z,20.73
2018-11-05T23:48:08.251Z,18.87
2018-11-05T23:50:36.358Z,17.53
2018-11-05T23:53:04.550Z,19.90
2018-11-05T23:55:32.671Z,15.97
2018-11-05T23:58:00.846Z,20.50
